Last 24 Hours

Pinyon

10 Minute Data | America/Los_Angeles
as of 9/3/26 3:28 PM PDT
Date & Time Temp (°F) Dew Pt (°F) RH (%) Wind Spd (mph) Wind Dir (°) Wind Gust (mph) Wind Gst Dir (°) Daily Max Temp (°F) Daily Min Temp (°F)
9/3/26 - 1520 78.8 33.4 19 16.2 NNW | 330 25.9 NNW | 337 79.9 63.0
9/3/26 - 1510 78.6 33.4 19 17.4 NNW | 330 25.4 NW | 322 79.9 63.0
9/3/26 - 1500 78.6 32.7 19 15.9 NNW | 335 26.4 NW | 308 79.9 63.0
9/3/26 - 1450 79.0 32.0 18 16.4 NNW | 341 25.6 NNW | 342 79.9 63.0
9/3/26 - 1440 78.4 31.6 18 15.9 NNW | 338 26.8 N | 351 79.9 63.0
9/3/26 - 1430 77.9 31.6 18 18.6 NNW | 338 27.0 NNW | 328 79.9 63.0
9/3/26 - 1420 78.6 31.7 18 17.6 NNW | 343 26.9 NNW | 348 79.9 63.0
9/3/26 - 1410 79.0 30.8 17 17.0 NNW | 338 27.1 NNW | 346 79.9 63.0
9/3/26 - 1400 78.6 31.1 18 18.1 NNW | 343 28.7 N | 9 79.4 63.0
9/3/26 - 1350 77.9 31.2 18 18.9 NNW | 338 27.8 NNW | 344 79.4 63.0
9/3/26 - 1340 78.2 32.1 19 18.1 NNW | 339 24.3 NNW | 345 79.4 63.0
9/3/26 - 1330 78.4 31.0 18 17.9 NNW | 341 27.2 NNW | 341 79.4 63.0
9/3/26 - 1320 78.0 30.9 18 19.0 NNW | 341 29.2 NNW | 344 79.4 63.0
9/3/26 - 1310 78.3 29.4 17 18.2 NNW | 342 26.4 NNW | 339 79.4 63.0
9/3/26 - 1300 78.6 28.2 16 18.0 NNW | 338 27.0 NNW | 334 79.4 63.0
9/3/26 - 1250 78.8 27.1 15 17.1 NNW | 342 26.5 NNW | 346 79.4 63.0
9/3/26 - 1240 77.6 26.0 15 19.3 NNW | 338 27.3 N | 352 78.5 63.0
9/3/26 - 1230 77.7 25.9 15 19.1 NNW | 343 27.5 NNW | 337 78.5 63.0
9/3/26 - 1220 77.6 25.2 14 19.1 NNW | 337 28.1 NNW | 344 78.5 63.0
9/3/26 - 1210 77.7 25.1 14 18.8 NNW | 339 27.6 NNW | 332 78.5 63.0
9/3/26 - 1200 77.6 24.4 14 19.9 NNW | 341 29.5 NNW | 344 78.5 63.0
9/3/26 - 1150 77.8 24.2 14 18.1 NNW | 347 30.0 N | 354 78.5 63.0
9/3/26 - 1140 77.2 23.9 14 19.0 NNW | 340 27.1 NNW | 336 77.8 63.0
9/3/26 - 1130 77.2 23.9 14 17.0 NNW | 341 27.9 N | 354 77.8 63.0
9/3/26 - 1120 76.9 23.8 14 17.7 NNW | 334 24.8 NNW | 341 77.5 63.0
9/3/26 - 1110 76.4 23.8 14 18.4 NNW | 334 27.2 NW | 325 77.1 63.0
9/3/26 - 1100 76.5 23.6 14 17.3 NNW | 335 25.9 NNW | 338 77.0 63.0
9/3/26 - 1050 75.9 23.1 14 17.3 NNW | 334 24.8 NNW | 339 76.3 63.0
9/3/26 - 1040 75.0 22.8 14 17.2 NNW | 334 23.9 NW | 320 75.3 63.0
9/3/26 - 1030 74.8 22.5 14 18.3 NNW | 335 24.5 NNW | 334 75.2 63.0
9/3/26 - 1020 74.6 21.9 14 17.6 NNW | 336 25.7 NNW | 333 75.0 63.0
9/3/26 - 1010 74.3 22.0 14 17.2 NNW | 334 26.4 NW | 325 74.8 63.0
9/3/26 - 1000 74.0 21.8 14 18.6 NNW | 336 27.3 NW | 325 74.4 63.0
9/3/26 - 0950 73.8 20.6 13 16.9 NNW | 332 24.9 NW | 326 74.4 63.0
9/3/26 - 0940 73.2 19.7 13 19.0 NNW | 336 27.9 NNW | 342 73.6 63.0
9/3/26 - 0930 73.0 18.3 12 18.9 NNW | 333 27.2 NNW | 328 73.6 63.0
9/3/26 - 0920 73.3 17.3 12 16.7 NNW | 334 24.6 NNW | 333 73.6 63.0
9/3/26 - 0910 73.1 15.4 11 17.1 NNW | 335 24.0 NNW | 340 73.4 63.0
9/3/26 - 0900 72.9 13.8 10 15.1 NNW | 335 22.4 NNW | 335 73.3 63.0
9/3/26 - 0850 72.4 12.3 10 16.1 NNW | 337 23.7 NNW | 330 72.7 63.0
9/3/26 - 0840 72.1 10.8 9 16.1 NNW | 335 23.7 NW | 324 72.5 63.0
9/3/26 - 0830 71.6 8.7 9 17.2 NNW | 334 24.1 N | 350 71.8 63.0
9/3/26 - 0820 71.4 7.2 8 16.7 NNW | 333 24.6 NNW | 334 71.6 63.0
9/3/26 - 0810 71.2 5.8 8 16.0 NNW | 337 22.7 NNW | 331 71.3 63.0
9/3/26 - 0800 70.7 5.5 8 16.6 NNW | 333 23.8 NW | 324 71.1 63.0
9/3/26 - 0750 70.2 5.7 8 18.5 NNW | 333 26.1 NNW | 332 70.5 63.0
9/3/26 - 0740 69.7 5.9 8 17.4 NNW | 332 24.8 NNW | 331 69.9 63.0
9/3/26 - 0730 69.2 7.1 9 17.2 NNW | 328 25.0 NNW | 329 69.4 63.0
9/3/26 - 0720 68.9 6.8 9 19.8 NNW | 332 26.5 NNW | 331 69.2 63.0
9/3/26 - 0710 68.3 7.4 9 20.3 NNW | 331 27.0 NW | 326 68.5 63.0
9/3/26 - 0700 67.0 12.5 12 19.9 NNW | 328 26.9 NW | 321 67.6 63.0
9/3/26 - 0650 66.4 15.8 14 20.1 NNW | 331 27.0 NNW | 331 66.6 63.0
9/3/26 - 0640 66.1 17.4 15 19.7 NNW | 331 27.0 NNW | 327 66.2 63.0
9/3/26 - 0630 65.7 18.3 16 18.7 NNW | 333 25.0 NNW | 333 65.8 63.0
9/3/26 - 0620 65.4 18.6 16 18.9 NNW | 334 25.9 NNW | 336 65.8 63.0
9/3/26 - 0610 65.3 18.4 16 17.6 NNW | 337 23.1 NNW | 338 65.6 63.0
9/3/26 - 0600 65.5 18.4 16 18.1 NNW | 337 23.9 NNW | 341 65.6 63.0
9/3/26 - 0550 65.2 18.4 16 17.5 NNW | 340 26.0 NNW | 341 65.4 63.0
9/3/26 - 0540 64.9 18.6 17 19.0 NNW | 339 28.0 NNW | 330 65.1 63.0
9/3/26 - 0530 64.8 18.8 17 18.4 NNW | 338 25.7 NNW | 345 64.9 63.0
9/3/26 - 0520 64.9 18.8 17 20.2 NNW | 337 27.0 NNW | 340 64.9 63.0
9/3/26 - 0510 64.8 18.6 17 19.2 NNW | 337 25.8 NNW | 336 64.9 63.0
9/3/26 - 0500 64.9 18.1 16 20.2 NNW | 336 27.8 NNW | 336 64.9 63.0
9/3/26 - 0450 64.8 17.1 16 20.1 NNW | 334 27.7 NNW | 336 64.9 63.0
9/3/26 - 0440 64.7 17.2 16 20.4 NNW | 334 28.4 NNW | 336 64.9 63.0
9/3/26 - 0430 64.7 16.8 15 19.7 NNW | 334 26.6 NNW | 345 64.9 63.0
9/3/26 - 0420 64.8 15.6 15 20.8 NNW | 334 29.2 NW | 312 64.9 63.0
9/3/26 - 0410 64.5 15.0 14 20.5 NNW | 330 27.8 NNW | 331 64.7 63.0
9/3/26 - 0400 64.3 13.1 13 21.4 NNW | 327 32.0 NW | 319 64.6 63.0
9/3/26 - 0350 64.2 11.3 12 20.1 NNW | 327 29.2 NNW | 337 64.6 63.0
9/3/26 - 0340 64.1 9.9 12 20.7 NW | 326 30.3 NW | 325 64.6 63.0
9/3/26 - 0330 64.1 7.2 10 19.0 NNW | 327 29.8 NNW | 333 64.6 63.0
9/3/26 - 0320 64.3 6.1 10 20.6 NW | 326 27.9 NW | 321 64.6 63.0
9/3/26 - 0310 64.4 4.9 9 21.0 NNW | 328 28.6 NW | 321 64.6 63.0
9/3/26 - 0300 64.4 4.4 9 20.8 NNW | 329 30.5 NNW | 332 64.6 63.0
9/3/26 - 0250 64.4 5.4 9 21.7 NNW | 328 30.2 NNW | 330 64.6 63.0
9/3/26 - 0240 64.3 7.8 11 22.7 NNW | 327 31.2 NNW | 327 64.5 63.0
9/3/26 - 0230 64.2 10.7 12 23.1 NNW | 327 31.9 NNW | 334 64.4 63.0
9/3/26 - 0220 64.0 11.5 13 22.9 NNW | 327 32.5 NW | 322 64.2 63.0
9/3/26 - 0210 63.9 14.4 14 22.9 NW | 326 30.5 NNW | 331 64.0 63.0
9/3/26 - 0200 63.6 17.6 17 23.1 NNW | 327 29.7 NNW | 332 64.0 63.0
9/3/26 - 0150 63.6 20.1 19 24.1 NNW | 330 32.0 NW | 325 64.0 63.0
9/3/26 - 0140 63.9 20.7 19 23.8 NNW | 331 31.6 NNW | 336 64.0 63.0
9/3/26 - 0130 63.7 23.4 21 23.1 NNW | 331 31.0 NNW | 346 63.9 63.0
9/3/26 - 0120 63.4 27.7 26 23.2 NNW | 328 32.9 NNW | 343 63.6 63.0
9/3/26 - 0110 63.1 30.0 29 22.1 NNW | 332 29.8 NNW | 334 63.3 63.0
9/3/26 - 0100 63.6 31.2 29 20.4 NNW | 334 28.0 NNW | 330 80.8 62.3
9/3/26 - 0050 64.1 33.3 32 21.5 NNW | 332 29.6 NNW | 343 80.8 62.3
9/3/26 - 0040 64.1 35.1 34 18.1 NNW | 330 26.9 NNW | 330 80.8 62.3
9/3/26 - 0030 64.2 36.4 36 17.0 NNW | 329 25.3 NNW | 341 80.8 62.3
9/3/26 - 0020 64.5 36.9 36 17.3 NNW | 329 23.4 NW | 324 80.8 62.3
9/3/26 - 0010 64.9 36.3 35 18.4 NNW | 330 27.3 NNW | 337 80.8 62.3
9/3/26 - 0000 65.3 35.5 33 18.5 NNW | 332 28.3 NW | 326 80.8 62.3
9/2/26 - 2350 65.4 34.8 32 20.5 NNW | 330 28.6 NNW | 331 80.8 62.3
9/2/26 - 2340 65.4 34.4 31 17.0 NNW | 333 26.2 NNW | 342 80.8 62.3
9/2/26 - 2330 65.5 34.4 31 19.2 NNW | 333 26.1 NNW | 339 80.8 62.3
9/2/26 - 2320 65.6 33.8 31 18.6 NNW | 332 27.1 NNW | 336 80.8 62.3
9/2/26 - 2310 65.6 32.4 29 17.2 NW | 326 25.4 NW | 312 80.8 62.3
9/2/26 - 2300 65.8 30.9 27 16.3 NW | 325 23.8 NW | 320 80.8 62.3
9/2/26 - 2250 66.0 29.5 25 18.7 NW | 323 27.2 NW | 322 80.8 62.3
9/2/26 - 2240 65.8 27.6 24 17.1 NNW | 327 27.4 NW | 322 80.8 62.3
9/2/26 - 2230 65.4 24.4 21 18.2 NW | 325 26.5 NNW | 338 80.8 62.3
9/2/26 - 2220 65.0 24.0 21 18.7 NW | 326 26.4 NNW | 340 80.8 62.3
9/2/26 - 2210 64.6 25.9 23 17.2 NNW | 328 25.0 NW | 324 80.8 62.3
9/2/26 - 2200 64.7 26.9 24 17.6 NNW | 328 26.0 NNW | 340 80.8 62.3
9/2/26 - 2150 65.0 28.7 25 17.3 NNW | 331 25.1 NNW | 334 80.8 62.3
9/2/26 - 2140 65.2 30.3 27 16.5 NNW | 330 25.8 NNW | 333 80.8 62.3
9/2/26 - 2130 65.8 30.7 27 13.5 NNW | 336 22.1 NW | 323 80.8 62.3
9/2/26 - 2120 66.1 32.3 28 13.0 NNW | 341 18.8 NNW | 334 80.8 62.3
9/2/26 - 2110 66.0 32.4 28 13.1 NNW | 338 18.8 NNW | 329 80.8 62.3
9/2/26 - 2100 66.4 31.8 27 13.8 NNW | 331 21.1 NNW | 330 80.8 62.3
9/2/26 - 2050 66.4 31.1 27 13.2 NW | 322 20.2 NW | 322 80.8 62.3
9/2/26 - 2040 66.6 30.8 26 12.4 NW | 311 21.6 NW | 318 80.8 62.3
9/2/26 - 2030 66.7 30.8 26 11.3 NW | 307 17.2 WNW | 298 80.8 62.3
9/2/26 - 2020 67.1 31.0 26 10.6 NW | 309 17.0 NW | 304 80.8 62.3
9/2/26 - 2010 67.7 30.4 25 13.4 NW | 315 21.3 NW | 313 80.8 62.3
9/2/26 - 2000 68.2 29.7 24 16.2 NW | 324 24.2 NNW | 332 80.8 62.3
9/2/26 - 1950 68.6 29.4 23 16.2 NNW | 327 23.1 NNW | 328 80.8 62.3
9/2/26 - 1940 69.1 27.6 21 16.8 NNW | 329 25.1 NW | 324 80.8 62.3
9/2/26 - 1930 69.6 26.8 20 16.6 NNW | 335 25.3 NW | 326 80.8 62.3
9/2/26 - 1920 70.2 24.7 18 17.3 NNW | 337 24.0 NNW | 338 80.8 62.3
9/2/26 - 1910 71.0 21.9 16 18.2 NNW | 337 26.8 NNW | 333 80.8 62.3
9/2/26 - 1900 71.8 20.9 15 21.2 NNW | 338 29.5 NNW | 343 80.8 62.3
9/2/26 - 1850 72.8 19.3 13 21.2 NNW | 338 30.8 NNW | 343 80.8 62.3
9/2/26 - 1840 73.5 20.2 13 20.9 NNW | 337 31.9 NNW | 331 80.8 62.3
9/2/26 - 1830 74.0 21.1 14 21.1 NNW | 337 28.9 NNW | 342 80.8 62.3
9/2/26 - 1820 74.5 18.4 12 20.6 NNW | 338 29.4 NNW | 345 80.8 62.3
9/2/26 - 1810 75.1 21.6 13 20.1 NNW | 334 28.6 NNW | 338 80.8 62.3
9/2/26 - 1800 75.4 23.0 14 19.3 NNW | 337 28.6 N | 353 80.8 62.3
9/2/26 - 1750 75.8 23.7 14 19.9 NNW | 342 29.3 NNW | 344 80.8 62.3
9/2/26 - 1740 76.0 25.9 16 21.3 NNW | 342 28.4 NNW | 330 80.8 62.3
9/2/26 - 1730 77.0 27.2 16 19.2 NNW | 342 25.6 N | 351 80.8 62.3
9/2/26 - 1720 77.0 28.7 17 17.1 NNW | 340 25.7 NW | 324 80.8 62.3
9/2/26 - 1710 77.6 28.7 17 16.6 NNW | 340 25.6 NNW | 330 80.8 62.3
9/2/26 - 1700 77.5 28.4 16 17.3 NNW | 342 26.1 N | 351 80.8 62.3
9/2/26 - 1650 77.9 27.8 16 16.3 NNW | 334 26.2 NNW | 333 80.8 62.3
9/2/26 - 1640 78.0 28.6 16 16.2 N | 355 24.6 NNW | 340 80.8 62.3
9/2/26 - 1630 78.1 27.3 15 18.7 NNW | 344 26.4 NNW | 332 80.8 62.3
9/2/26 - 1620 78.5 24.3 13 18.3 NNW | 344 27.1 NNW | 333 80.8 62.3
9/2/26 - 1610 78.9 23.1 13 17.7 NNW | 338 26.9 NNW | 339 80.8 62.3
9/2/26 - 1600 78.6 23.1 13 19.9 NNW | 337 30.0 NNW | 338 80.8 62.3
9/2/26 - 1550 79.1 23.9 13 20.7 NNW | 341 30.9 NNW | 335 80.8 62.3
9/2/26 - 1540 79.3 25.8 14 19.9 NNW | 336 30.3 NNW | 340 80.8 62.3
9/2/26 - 1530 79.6 26.0 14 19.6 NNW | 334 29.3 NNW | 334 80.8 62.3
9/2/26 - 1520 79.6 26.4 14 19.4 NNW | 332 31.6 NNW | 347 80.8 62.3
Max 79.6 36.9 36 24.1 - 32.9 - 80.8 63.0
Avg 70.6 22.9 17 18.4 - 26.7 - - -
Min 63.1 4.4 8 10.6 - 17.0 - 63.3 62.3